Time;durP1;ratioP1;P1;durP2;ratioP2;P2;SDS_P1;SDS_P2;PMS_P1;PMS_P2;Temp;Humidity;BMP_temperature;BMP_pressure;BME280_temperature;BME280_humidity;BME280_pressure;Samples;Min_cycle;Max_cycle;Signal;HPM_P1;HPM_P2
2023/12/18 10:44:05;;;;;;;20.20;14.30;;;;;;;7.23;88.80;100895.58;99296;1292;1002831;-72
2023/12/18 10:46:34;;;;;;;21.40;14.40;;;;;;;7.25;88.79;100894.00;102336;1268;138139;-72
2023/12/18 10:49:02;;;;;;;21.50;15.00;;;;;;;7.30;88.87;100896.39;102498;1266;107332;-72
2023/12/18 10:51:33;;;;;;;22.80;15.20;;;;;;;7.29;88.80;100895.36;101538;1266;1003510;-72
2023/12/18 10:54:02;;;;;;;19.50;14.60;;;;;;;7.28;88.91;100887.58;102418;1269;107486;-72
2023/12/18 10:56:32;;;;;;;16.60;12.70;;;;;;;7.25;88.78;100894.70;102414;1270;107764;-72
2023/12/18 10:59:02;;;;;;;18.00;13.20;;;;;;;7.22;88.81;100891.96;102471;1268;94969;-71
2023/12/18 11:01:30;;;;;;;18.20;13.50;;;;;;;7.20;88.95;100891.81;102550;1266;107933;-72
2023/12/18 11:03:58;;;;;;;18.90;12.90;;;;;;;7.20;89.23;100895.44;102474;1263;139635;-74
2023/12/18 11:06:26;;;;;;;21.80;13.60;;;;;;;7.20;89.19;100891.11;102506;1263;108269;-69
2023/12/18 11:08:53;;;;;;;19.30;14.20;;;;;;;7.21;89.30;100891.80;102363;1266;138302;-70
2023/12/18 11:11:22;;;;;;;19.10;13.40;;;;;;;7.20;89.45;100893.02;102583;1263;96092;-70
2023/12/18 11:14:13;;;;;;;18.60;14.30;;;;;;;7.21;89.68;100890.24;102558;1263;108563;-68
2023/12/18 11:16:52;;;;;;;22.50;15.10;;;;;;;7.20;90.02;100889.21;102440;1267;137968;-68
2023/12/18 11:19:27;;;;;;;21.10;15.80;;;;;;;7.20;90.40;100888.35;102298;1269;109546;-70
2023/12/18 11:21:55;;;;;;;24.00;15.80;;;;;;;7.18;90.76;100880.91;102401;1266;138006;-69
2023/12/18 11:24:22;;;;;;;19.40;14.50;;;;;;;7.14;91.08;100883.70;102600;1268;95128;-69
2023/12/18 11:26:51;;;;;;;21.40;15.00;;;;;;;7.14;91.47;100874.89;102636;1264;138006;-68
2023/12/18 11:29:43;;;;;;;20.90;15.30;;;;;;;7.13;91.74;100879.05;102753;1265;95085;-69
2023/12/18 11:32:12;;;;;;;20.30;14.80;;;;;;;7.12;92.01;100880.78;102778;1263;107990;-69
2023/12/18 11:34:41;;;;;;;24.90;15.30;;;;;;;7.12;92.06;100880.79;102602;1263;138079;-69
2023/12/18 11:37:12;;;;;;;25.70;15.30;;;;;;;7.14;92.33;100875.41;102777;1265;95401;-69
2023/12/18 11:39:48;;;;;;;20.80;14.00;;;;;;;7.18;92.46;100881.27;102752;1257;137803;-69
2023/12/18 11:42:35;;;;;;;21.00;15.10;;;;;;;7.18;92.55;100879.02;102841;1259;95246;-70
2023/12/18 11:45:08;;;;;;;20.30;14.50;;;;;;;7.15;92.45;100877.64;102672;1259;138818;-70
2023/12/18 11:47:37;;;;;;;18.80;14.30;;;;;;;7.13;92.68;100883.02;102861;1262;106578;-70
2023/12/18 11:50:04;;;;;;;20.00;13.70;;;;;;;7.11;92.76;100885.47;102185;1259;1003100;-69
2023/12/18 11:52:32;;;;;;;34.40;23.70;;;;;;;7.09;92.79;100877.88;102798;1259;138029;-70
2023/12/18 11:55:00;;;;;;;22.00;15.70;;;;;;;7.09;93.05;100880.13;102852;1259;95100;-68
2023/12/18 11:57:27;;;;;;;23.30;16.40;;;;;;;7.08;92.97;100884.27;102688;1259;137161;-70
2023/12/18 11:59:53;;;;;;;26.80;15.00;;;;;;;7.04;93.21;100887.95;102839;1265;106910;-70
2023/12/18 12:02:22;;;;;;;21.90;14.10;;;;;;;7.01;93.30;100892.30;102865;1259;95124;-68
2023/12/18 12:04:49;;;;;;;21.20;15.20;;;;;;;6.98;93.48;100888.32;102772;1262;137638;-71
2023/12/18 12:07:16;;;;;;;20.20;13.80;;;;;;;6.98;93.75;100884.52;102116;1262;1003584;-70
2023/12/18 12:09:43;;;;;;;22.00;15.00;;;;;;;7.00;93.69;100883.67;102844;1260;138508;-68
2023/12/18 12:12:11;;;;;;;19.10;14.40;;;;;;;6.99;93.79;100891.77;102859;1259;106968;-69
2023/12/18 12:14:39;;;;;;;24.40;14.20;;;;;;;6.97;93.58;100899.56;102799;1262;138401;-70
2023/12/18 12:17:07;;;;;;;19.20;13.50;;;;;;;6.95;93.84;100904.59;102843;1258;109004;-69
2023/12/18 12:19:37;;;;;;;20.30;13.90;;;;;;;6.95;94.04;100907.36;102961;1259;95017;-68
2023/12/18 12:22:05;;;;;;;19.80;14.00;;;;;;;6.94;94.06;100913.43;102762;1259;139109;-69
2023/12/18 12:24:33;;;;;;;18.40;13.90;;;;;;;6.92;94.24;100916.20;102904;1259;107553;-68
2023/12/18 12:27:00;;;;;;;20.60;14.90;;;;;;;6.89;94.25;100920.02;103442;1257;138218;-69
2023/12/18 12:29:28;;;;;;;21.70;15.60;;;;;;;6.87;94.57;100919.71;102975;1260;107473;-70
2023/12/18 12:31:55;;;;;;;21.30;15.50;;;;;;;6.83;94.56;100920.77;102908;1259;95115;-69
2023/12/18 12:34:37;;;;;;;19.50;13.80;;;;;;;6.79;94.61;100916.45;102099;1259;1003558;-69
2023/12/18 12:37:04;;;;;;;20.30;14.60;;;;;;;6.75;94.77;100914.76;102836;1260;108703;-69
2023/12/18 12:39:31;;;;;;;21.60;14.90;;;;;;;6.70;94.94;100912.04;102038;1262;1003822;-68
2023/12/18 12:41:58;;;;;;;21.20;14.10;;;;;;;6.68;95.26;100915.67;102905;1260;107243;-69
2023/12/18 12:44:26;;;;;;;18.60;14.20;;;;;;;6.67;95.49;100919.66;102885;1259;95009;-70
2023/12/18 12:46:53;;;;;;;20.70;14.10;;;;;;;6.67;95.66;100918.80;103032;1257;109472;-68
2023/12/18 12:49:21;;;;;;;19.10;14.30;;;;;;;6.70;96.05;100912.55;103072;1257;107666;-69
2023/12/18 12:51:49;;;;;;;22.90;14.90;;;;;;;6.70;96.05;100908.23;103118;1254;138914;-69
2023/12/18 12:54:16;;;;;;;18.70;13.90;;;;;;;6.67;96.24;100906.17;102948;1257;108336;-70
2023/12/18 12:56:45;;;;;;;22.50;14.10;;;;;;;6.65;96.34;100907.73;102878;1260;138438;-69
2023/12/18 12:59:12;;;;;;;19.30;14.60;;;;;;;6.67;96.45;100908.94;103063;1259;109079;-69
2023/12/18 13:01:38;;;;;;;18.20;13.90;;;;;;;6.69;96.67;100907.20;103031;1259;107013;-69
2023/12/18 13:04:05;;;;;;;20.80;14.20;;;;;;;6.68;96.56;100907.20;102948;1257;138121;-70
2023/12/18 13:06:33;;;;;;;24.80;13.70;;;;;;;6.65;96.61;100909.82;103075;1257;107020;-70
2023/12/18 13:09:00;;;;;;;24.10;14.90;;;;;;;6.63;96.79;100910.66;102164;1260;1005705;-68
2023/12/18 13:11:26;;;;;;;24.20;14.60;;;;;;;6.62;96.84;100904.61;103053;1256;108767;-69
2023/12/18 13:13:54;;;;;;;20.20;14.50;;;;;;;6.62;96.99;100904.79;103029;1257;105851;-70
2023/12/18 13:16:34;;;;;;;23.90;15.50;;;;;;;6.62;97.18;100906.52;102941;1260;138595;-68
2023/12/18 13:19:01;;;;;;;20.10;14.90;;;;;;;6.60;97.22;100905.33;103042;1259;107393;-68
2023/12/18 13:21:28;;;;;;;20.10;14.80;;;;;;;6.60;97.39;100905.50;102830;1263;138348;-70
2023/12/18 13:23:55;;;;;;;23.60;14.50;;;;;;;6.59;97.37;100908.79;102969;1257;109157;-68
2023/12/18 13:26:23;;;;;;;20.10;14.90;;;;;;;6.58;97.52;100907.77;103037;1259;108855;-69
2023/12/18 13:28:50;;;;;;;24.40;15.50;;;;;;;6.59;97.61;100908.45;102873;1261;138354;-70
2023/12/18 13:31:17;;;;;;;22.50;15.40;;;;;;;6.61;97.80;100911.89;102988;1260;107469;-69
2023/12/18 13:33:46;;;;;;;21.30;14.40;;;;;;;6.64;97.89;100907.55;102826;1263;138251;-69
2023/12/18 13:36:13;;;;;;;20.90;14.60;;;;;;;6.64;97.86;100908.24;102879;1259;108202;-70
2023/12/18 13:38:41;;;;;;;21.50;14.40;;;;;;;6.64;97.86;100906.70;102959;1258;139769;-70
2023/12/18 13:41:08;;;;;;;19.80;14.60;;;;;;;6.65;97.85;100895.98;103021;1259;95598;-69
2023/12/18 13:43:40;;;;;;;20.00;14.90;;;;;;;6.65;97.80;100897.72;103045;1259;106695;-71
2023/12/18 13:46:07;;;;;;;19.10;13.80;;;;;;;6.65;97.74;100896.34;102914;1257;138261;-71
2023/12/18 13:48:34;;;;;;;19.90;14.00;;;;;;;6.68;97.90;100899.09;103053;1257;107461;-70
2023/12/18 13:51:02;;;;;;;20.10;14.10;;;;;;;6.73;98.11;100904.92;102836;1260;138282;-70
2023/12/18 13:53:29;;;;;;;23.40;14.60;;;;;;;6.76;97.93;100907.66;102942;1257;95413;-72
2023/12/18 13:55:56;;;;;;;23.60;15.00;;;;;;;6.77;97.79;100907.14;102974;1260;107562;-70
2023/12/18 13:58:22;;;;;;;21.90;14.80;;;;;;;6.78;97.71;100906.95;102967;1259;138944;-71
2023/12/18 14:00:49;;;;;;;22.30;14.80;;;;;;;6.78;97.55;100907.83;102954;1257;108591;-70
2023/12/18 14:03:18;;;;;;;21.30;14.70;;;;;;;6.76;97.33;100908.18;102151;1257;1003471;-71
2023/12/18 14:05:45;;;;;;;22.30;14.90;;;;;;;6.74;97.36;100907.16;103053;1261;95098;-70
2023/12/18 14:08:12;;;;;;;22.60;14.80;;;;;;;6.74;97.35;100909.94;102197;1257;1003458;-69
2023/12/18 14:10:39;;;;;;;20.90;14.10;;;;;;;6.73;97.41;100907.68;102722;1260;140316;-69
2023/12/18 14:13:08;;;;;;;22.50;14.60;;;;;;;6.74;97.25;100910.96;102920;1257;107997;-70
2023/12/18 14:15:35;;;;;;;19.40;14.40;;;;;;;6.74;97.06;100914.07;102761;1258;138714;-71
2023/12/18 14:18:02;;;;;;;18.90;14.20;;;;;;;6.76;97.12;100905.95;102234;1259;1003352;-70
2023/12/18 14:20:30;;;;;;;21.10;14.30;;;;;;;6.76;97.09;100901.96;102950;1259;106699;-69
2023/12/18 14:22:57;;;;;;;20.10;13.60;;;;;;;6.75;96.95;100902.83;102961;1263;95183;-71
2023/12/18 14:25:23;;;;;;;20.00;13.50;;;;;;;6.74;96.89;100902.49;103012;1257;109501;-71
2023/12/18 14:27:50;;;;;;;18.80;13.60;;;;;;;6.74;96.83;100904.91;102947;1257;138303;-70
2023/12/18 14:30:17;;;;;;;20.10;14.30;;;;;;;6.74;96.81;100906.46;102246;1259;1003360;-71
2023/12/18 14:32:46;;;;;;;16.80;12.80;;;;;;;6.76;96.98;100905.77;102854;1260;138685;-69
2023/12/18 14:35:14;;;;;;;19.20;13.80;;;;;;;6.78;96.96;100902.98;102319;1259;1003418;-70
2023/12/18 14:37:41;;;;;;;19.90;14.50;;;;;;;6.80;96.98;100903.66;102977;1259;108813;-71
2023/12/18 14:40:12;;;;;;;23.00;13.90;;;;;;;6.82;96.85;100909.18;102119;1258;1003729;-69
2023/12/18 14:42:39;;;;;;;19.60;14.10;;;;;;;6.82;96.72;100909.70;103038;1257;96792;-71
2023/12/18 14:45:09;;;;;;;22.00;14.90;;;;;;;6.81;96.73;100915.39;102862;1260;138289;-69
2023/12/18 14:47:36;;;;;;;19.20;13.70;;;;;;;6.82;96.82;100916.27;103298;1256;95816;-70
2023/12/18 14:50:03;;;;;;;20.20;14.10;;;;;;;6.82;96.78;100921.80;103037;1257;109641;-72
2023/12/18 14:52:30;;;;;;;18.20;13.70;;;;;;;6.85;96.80;100925.60;102533;1262;138666;-72
2023/12/18 14:54:57;;;;;;;22.40;13.90;;;;;;;6.84;96.69;100932.34;102930;1259;96429;-73
2023/12/18 14:57:24;;;;;;;18.40;14.10;;;;;;;6.85;96.78;100925.77;102854;1260;138261;-71
2023/12/18 14:59:51;;;;;;;20.80;14.50;;;;;;;6.87;96.71;100929.91;102970;1260;96315;-72
2023/12/18 15:02:18;;;;;;;20.20;14.60;;;;;;;6.86;96.69;100934.58;102248;1259;1002940;-71
2023/12/18 15:04:45;;;;;;;20.10;14.80;;;;;;;6.84;96.45;100936.33;102911;1260;141059;-73
2023/12/18 15:07:13;;;;;;;22.40;15.10;;;;;;;6.85;96.57;100939.42;103002;1257;96996;-72
2023/12/18 15:09:40;;;;;;;21.40;15.60;;;;;;;6.84;96.58;100937.02;102752;1260;138129;-71
2023/12/18 15:12:08;;;;;;;20.90;14.60;;;;;;;6.83;96.48;100944.27;102832;1263;96430;-72
2023/12/18 15:14:35;;;;;;;21.20;15.40;;;;;;;6.81;96.55;100946.86;103940;1257;138287;-70
2023/12/18 15:17:04;;;;;;;24.80;15.20;;;;;;;6.83;96.68;100947.39;102947;1259;106837;-71
2023/12/18 15:19:32;;;;;;;22.20;15.40;;;;;;;6.85;96.63;100953.27;102908;1260;96945;-70
2023/12/18 15:22:00;;;;;;;19.50;15.00;;;;;;;6.85;96.46;100956.38;102995;1260;138137;-69
2023/12/18 15:24:27;;;;;;;22.00;15.40;;;;;;;6.85;96.39;100960.86;102832;1263;96328;-69
2023/12/18 15:26:54;;;;;;;20.70;14.80;;;;;;;6.84;96.22;100958.62;102853;1257;139071;-71
2023/12/18 15:29:20;;;;;;;19.60;15.30;;;;;;;6.84;96.21;100959.84;102780;1262;108598;-72
2023/12/18 15:31:47;;;;;;;20.30;14.80;;;;;;;6.83;96.15;100955.17;102984;1257;96475;-73
2023/12/18 15:34:14;;;;;;;18.90;15.00;;;;;;;6.80;96.08;100951.70;102919;1257;139921;-73
2023/12/18 15:36:42;;;;;;;21.70;15.60;;;;;;;6.77;96.11;100948.45;102961;1263;96464;-72
2023/12/18 15:39:09;;;;;;;19.60;14.70;;;;;;;6.78;96.13;100950.85;102139;1260;1003537;-72
2023/12/18 15:41:38;;;;;;;21.70;15.20;;;;;;;6.75;96.16;100949.48;102966;1270;107738;-71
2023/12/18 15:44:07;;;;;;;19.80;14.90;;;;;;;6.73;96.10;100949.16;102931;1260;96459;-70
2023/12/18 15:46:34;;;;;;;19.40;15.30;;;;;;;6.72;96.08;100945.20;101930;1265;1003122;-71
2023/12/18 15:49:01;;;;;;;20.60;16.00;;;;;;;6.70;96.13;100946.77;103021;1258;96439;-71
2023/12/18 15:51:28;;;;;;;20.50;16.40;;;;;;;6.69;96.08;100936.05;102112;1263;1003237;-73
2023/12/18 15:53:55;;;;;;;19.60;15.60;;;;;;;6.69;96.10;100936.23;103010;1258;106422;-70
2023/12/18 15:56:22;;;;;;;18.60;15.40;;;;;;;6.69;96.14;100936.06;102337;1260;1003516;-70
2023/12/18 15:58:49;;;;;;;21.50;16.00;;;;;;;6.68;96.19;100934.68;102933;1260;139537;-72
2023/12/18 16:01:21;;;;;;;20.50;16.30;;;;;;;6.65;96.09;100934.02;103035;1257;96463;-71
2023/12/18 16:03:48;;;;;;;20.20;15.70;;;;;;;6.62;96.10;100931.77;103286;1257;140681;-71
2023/12/18 16:06:15;;;;;;;21.00;16.50;;;;;;;6.65;96.13;100936.94;103353;1258;107654;-71
2023/12/18 16:08:42;;;;;;;22.90;16.30;;;;;;;6.68;96.37;100935.02;102776;1260;138453;-71
2023/12/18 16:11:09;;;;;;;22.70;16.90;;;;;;;6.68;96.25;100929.32;102850;1260;107860;-71
2023/12/18 16:13:36;;;;;;;21.10;16.10;;;;;;;6.65;95.99;100933.30;102856;1269;96711;-71
2023/12/18 16:16:03;;;;;;;22.90;16.30;;;;;;;6.63;96.04;100928.45;102998;1262;138895;-71
2023/12/18 16:18:30;;;;;;;21.70;15.50;;;;;;;6.61;96.07;100931.41;102844;1256;106560;-71
2023/12/18 16:20:58;;;;;;;21.20;15.90;;;;;;;6.59;96.09;100933.84;103164;1256;139168;-74
2023/12/18 16:23:25;;;;;;;22.30;16.10;;;;;;;6.62;96.29;100937.46;102937;1259;107931;-72
2023/12/18 16:25:54;;;;;;;21.30;17.20;;;;;;;6.63;96.19;100931.92;102298;1260;1003354;-72
2023/12/18 16:28:21;;;;;;;21.80;16.10;;;;;;;6.63;96.17;100936.23;102932;1260;139410;-72
2023/12/18 16:30:49;;;;;;;24.50;17.10;;;;;;;6.62;96.02;100930.55;102983;1257;107112;-71
2023/12/18 16:33:23;;;;;;;22.50;17.00;;;;;;;6.63;96.13;100929.84;102803;1262;139057;-71
2023/12/18 16:35:50;;;;;;;26.10;18.20;;;;;;;6.62;96.07;100931.75;103060;1260;108276;-72
2023/12/18 16:38:18;;;;;;;23.70;17.20;;;;;;;6.62;96.16;100931.23;102100;1263;1003250;-73
2023/12/18 16:40:45;;;;;;;22.60;16.10;;;;;;;6.61;96.27;100928.98;102904;1261;138460;-71
2023/12/18 16:43:11;;;;;;;22.70;17.50;;;;;;;6.64;96.12;100926.05;102903;1257;107499;-74
2023/12/18 16:45:38;;;;;;;23.50;17.80;;;;;;;6.64;96.18;100921.21;102955;1257;138320;-74
2023/12/18 16:48:06;;;;;;;21.80;16.90;;;;;;;6.64;96.10;100914.82;102936;1256;107376;-73
2023/12/18 16:50:33;;;;;;;24.60;17.40;;;;;;;6.65;96.10;100908.44;103122;1259;96431;-73
2023/12/18 16:53:02;;;;;;;24.10;18.40;;;;;;;6.68;96.22;100916.37;103065;1256;108981;-73
2023/12/18 16:55:28;;;;;;;25.00;17.90;;;;;;;6.69;96.20;100917.56;102860;1260;107671;-74
2023/12/18 16:57:55;;;;;;;24.80;17.90;;;;;;;6.68;95.90;100918.79;102877;1260;138360;-73
2023/12/18 17:00:26;;;;;;;22.90;17.50;;;;;;;6.64;95.75;100922.78;103114;1259;108649;-75
2023/12/18 17:02:53;;;;;;;24.90;18.70;;;;;;;6.62;95.82;100921.38;102987;1260;138511;-74
2023/12/18 17:05:20;;;;;;;21.70;17.40;;;;;;;6.61;95.87;100921.21;102984;1263;109156;-78
2023/12/18 17:07:51;;;;;;;23.40;19.60;;;;;;;6.57;95.91;100912.60;103063;1264;107423;-77
2023/12/18 17:10:18;;;;;;;24.50;18.50;;;;;;;6.62;96.16;100918.61;102214;1257;1002989;-79
2023/12/18 17:12:44;;;;;;;26.90;19.80;;;;;;;6.65;96.12;100910.85;103180;1257;107711;-72
2023/12/18 17:15:13;;;;;;;23.90;18.40;;;;;;;6.65;95.95;100908.60;102238;1260;1002908;-71
2023/12/18 17:17:40;;;;;;;22.40;18.50;;;;;;;6.62;95.70;100906.52;103162;1260;109802;-71
2023/12/18 17:20:09;;;;;;;25.40;18.90;;;;;;;6.61;95.81;100904.80;102383;1257;1003657;-72
2023/12/18 17:22:36;;;;;;;25.50;18.40;;;;;;;6.60;95.84;100912.76;103110;1257;138633;-73
2023/12/18 17:25:03;;;;;;;23.70;18.30;;;;;;;6.58;95.96;100901.89;103023;1261;106578;-74
2023/12/18 17:27:33;;;;;;;25.30;18.30;;;;;;;6.60;95.91;100909.83;102890;1260;138376;-73
2023/12/18 17:30:00;;;;;;;26.20;19.20;;;;;;;6.60;95.90;100909.99;103148;1254;110811;-72
2023/12/18 17:32:27;;;;;;;25.30;19.80;;;;;;;6.59;95.91;100902.06;103184;1257;107506;-69
2023/12/18 17:34:56;;;;;;;28.40;20.10;;;;;;;6.58;95.94;100896.36;103017;1257;138776;-74
2023/12/18 17:37:24;;;;;;;24.90;19.70;;;;;;;6.58;96.09;100900.33;103097;1255;107897;-73
2023/12/18 17:39:51;;;;;;;24.10;18.80;;;;;;;6.59;96.07;100893.59;103050;1255;138281;-74
2023/12/18 17:42:18;;;;;;;26.60;20.00;;;;;;;6.60;96.08;100887.36;103109;1260;110080;-75
2023/12/18 17:44:46;;;;;;;24.80;19.90;;;;;;;6.63;96.08;100880.25;103012;1260;138654;-74
2023/12/18 17:47:13;;;;;;;25.80;19.50;;;;;;;6.63;96.02;100877.84;103205;1257;97055;-73
2023/12/18 17:49:40;;;;;;;25.20;20.30;;;;;;;6.63;95.83;100874.55;103128;1254;108960;-70
2023/12/18 17:52:07;;;;;;;24.50;20.00;;;;;;;6.62;95.77;100871.63;103022;1257;139878;-69
2023/12/18 17:54:34;;;;;;;26.10;20.90;;;;;;;6.63;95.88;100869.54;103084;1258;109963;-69
2023/12/18 17:57:03;;;;;;;26.40;21.10;;;;;;;6.62;95.79;100860.39;103091;1257;140148;-70
2023/12/18 17:59:30;;;;;;;23.10;19.80;;;;;;;6.64;95.99;100864.89;103441;1254;96456;-68
2023/12/18 18:01:57;;;;;;;28.90;21.30;;;;;;;6.64;95.67;100870.41;103408;1251;109213;-69
2023/12/18 18:04:27;;;;;;;24.80;21.10;;;;;;;6.66;95.70;100866.43;103308;1254;138338;-68
2023/12/18 18:06:57;;;;;;;27.40;20.90;;;;;;;6.68;95.87;100864.87;103481;1251;108593;-68
2023/12/18 18:09:25;;;;;;;29.20;21.30;;;;;;;6.70;95.71;100865.89;103276;1257;138528;-68
2023/12/18 18:11:52;;;;;;;27.80;20.00;;;;;;;6.72;95.93;100863.10;103349;1251;96338;-66
2023/12/18 18:14:18;;;;;;;25.30;20.90;;;;;;;6.73;95.64;100862.23;103360;1254;106822;-67
2023/12/18 18:16:49;;;;;;;27.50;21.20;;;;;;;6.71;95.52;100864.66;103243;1257;138368;-67
2023/12/18 18:19:19;;;;;;;27.50;21.40;;;;;;;6.70;95.39;100865.38;103410;1251;110507;-69
2023/12/18 18:21:48;;;;;;;29.30;22.50;;;;;;;6.66;95.35;100868.16;103216;1251;1002919;-68
2023/12/18 18:24:16;;;;;;;27.70;22.10;;;;;;;6.65;95.35;100862.13;103432;1254;97068;-69
2023/12/18 18:26:43;;;;;;;25.80;20.80;;;;;;;6.63;95.47;100855.21;102162;1254;1003036;-68
2023/12/18 18:29:16;;;;;;;27.20;22.50;;;;;;;6.65;95.47;100858.84;103219;1254;96437;-67
2023/12/18 18:31:44;;;;;;;29.20;22.50;;;;;;;6.64;95.49;100858.49;103253;1254;110226;-69
2023/12/18 18:34:12;;;;;;;24.10;20.70;;;;;;;6.63;95.58;100857.95;102476;1253;1003721;-67
2023/12/18 18:36:41;;;;;;;31.70;21.40;;;;;;;6.66;95.68;100854.33;103357;1251;96472;-68
2023/12/18 18:39:09;;;;;;;24.70;20.10;;;;;;;6.68;95.44;100860.20;103291;1257;138350;-69
2023/12/18 18:41:36;;;;;;;26.50;20.30;;;;;;;6.68;95.50;100861.23;103446;1251;96453;-68
2023/12/18 18:44:04;;;;;;;26.10;22.00;;;;;;;6.69;95.33;100865.70;103382;1251;110264;-67
2023/12/18 18:46:31;;;;;;;32.40;22.70;;;;;;;6.73;95.54;100868.63;103222;1254;139322;-68
2023/12/18 18:49:00;;;;;;;26.90;23.00;;;;;;;6.72;95.30;100869.33;103319;1255;96734;-68
2023/12/18 18:51:27;;;;;;;26.90;22.30;;;;;;;6.69;95.20;100865.55;103285;1254;138685;-68
2023/12/18 18:53:54;;;;;;;31.50;23.10;;;;;;;6.67;95.34;100861.25;103302;1257;96668;-68
2023/12/18 18:56:21;;;;;;;27.70;21.30;;;;;;;6.65;95.25;100862.29;103285;1254;109744;-74
2023/12/18 18:58:52;;;;;;;26.80;21.80;;;;;;;6.67;95.19;100861.77;103084;1257;138268;-74
2023/12/18 19:01:19;;;;;;;28.90;22.00;;;;;;;6.67;95.25;100864.70;103260;1254;99066;-78
2023/12/18 19:03:46;;;;;;;25.90;20.80;;;;;;;6.69;95.14;100859.50;103104;1254;138096;-71
2023/12/18 19:06:13;;;;;;;28.60;21.70;;;;;;;6.69;95.25;100863.65;103306;1253;96462;-70
2023/12/18 19:08:41;;;;;;;26.10;21.80;;;;;;;6.70;95.08;100867.11;103151;1251;139080;-71
2023/12/18 19:11:07;;;;;;;29.00;23.50;;;;;;;6.71;95.05;100862.42;103259;1254;108172;-71
2023/12/18 19:13:34;;;;;;;28.40;23.90;;;;;;;6.72;95.05;100861.04;103219;1254;96355;-74
2023/12/18 19:16:02;;;;;;;29.10;22.70;;;;;;;6.70;95.16;100847.73;103082;1254;139109;-71
2023/12/18 19:18:29;;;;;;;29.90;22.50;;;;;;;6.73;95.12;100848.75;103281;1256;96499;-72
2023/12/18 19:20:57;;;;;;;24.80;20.40;;;;;;;6.72;94.81;100849.11;102384;1256;1002963;-72
2023/12/18 19:23:24;;;;;;;28.10;22.50;;;;;;;6.71;94.87;100842.89;103215;1256;107955;-72
2023/12/18 19:25:50;;;;;;;29.90;23.30;;;;;;;6.76;95.10;100844.76;103257;1256;95238;-73
2023/12/18 19:28:17;;;;;;;29.80;24.20;;;;;;;6.80;95.02;100841.44;103161;1251;137714;-73
2023/12/18 19:30:44;;;;;;;32.10;24.90;;;;;;;6.81;94.94;100836.41;103193;1253;96354;-73
2023/12/18 19:33:12;;;;;;;33.00;26.50;;;;;;;6.84;94.58;100840.21;103145;1251;137650;-73
2023/12/18 19:35:41;;;;;;;28.10;22.40;;;;;;;6.83;94.77;100841.09;103180;1254;110687;-73
2023/12/18 19:38:08;;;;;;;28.60;22.70;;;;;;;6.81;94.66;100842.98;103189;1253;96477;-74
2023/12/18 19:40:35;;;;;;;26.60;22.00;;;;;;;6.80;94.49;100834.52;103088;1251;138277;-72
2023/12/18 19:43:04;;;;;;;26.50;20.90;;;;;;;6.77;94.32;100829.35;103241;1256;96456;-71
2023/12/18 19:45:32;;;;;;;26.60;21.80;;;;;;;6.80;94.58;100825.02;103118;1251;137793;-72
2023/12/18 19:47:59;;;;;;;28.30;23.70;;;;;;;6.83;94.32;100820.87;103239;1251;107296;-70
2023/12/18 19:50:26;;;;;;;31.00;24.20;;;;;;;6.81;94.05;100818.61;103353;1251;96437;-71
2023/12/18 19:52:53;;;;;;;35.00;25.80;;;;;;;6.78;94.29;100810.68;103114;1257;137300;-71
2023/12/18 19:55:20;;;;;;;28.30;23.70;;;;;;;6.77;94.46;100805.52;103055;1256;96411;-70
2023/12/18 19:57:47;;;;;;;31.90;22.70;;;;;;;6.75;94.54;100805.36;103101;1252;138165;-70
2023/12/18 20:00:15;;;;;;;25.60;21.60;;;;;;;6.73;94.53;100795.36;103280;1253;107527;-68
2023/12/18 20:02:42;;;;;;;28.20;22.50;;;;;;;6.71;94.76;100791.73;103182;1257;138520;-69
2023/12/18 20:05:10;;;;;;;27.90;22.00;;;;;;;6.68;94.77;100793.49;104341;1251;109003;-68
2023/12/18 20:07:37;;;;;;;29.40;22.50;;;;;;;6.68;95.21;100796.09;104745;1252;94921;-69
2023/12/18 20:10:06;;;;;;;28.30;22.90;;;;;;;6.72;95.39;100794.33;104660;1250;137856;-68
2023/12/18 20:12:33;;;;;;;29.50;23.60;;;;;;;6.76;95.57;100795.67;103917;1253;1002962;-68
2023/12/18 20:15:00;;;;;;;30.70;23.80;;;;;;;6.80;95.50;100791.83;103884;1250;1002619;-69
2023/12/18 20:17:27;;;;;;;30.70;25.10;;;;;;;6.81;95.39;100787.67;104757;1251;107411;-69
2023/12/18 20:19:56;;;;;;;29.30;22.90;;;;;;;6.78;95.39;100787.36;103917;1251;96753;-69
2023/12/18 20:22:23;;;;;;;29.20;21.70;;;;;;;6.75;95.22;100786.86;103101;1259;138091;-69
2023/12/18 20:24:50;;;;;;;27.60;20.30;;;;;;;6.73;95.34;100780.66;103216;1251;105555;-68
2023/12/18 20:27:18;;;;;;;23.00;19.80;;;;;;;6.71;95.41;100780.34;103260;1254;138655;-69
2023/12/18 20:29:47;;;;;;;26.10;19.50;;;;;;;6.69;95.55;100772.75;103229;1257;107451;-70
2023/12/18 20:32:15;;;;;;;24.20;19.30;;;;;;;6.72;95.72;100773.08;103282;1254;96333;-69
2023/12/18 20:34:42;;;;;;;25.30;21.20;;;;;;;6.72;95.73;100775.50;102547;1251;1002798;-69
2023/12/18 20:37:09;;;;;;;27.60;22.40;;;;;;;6.72;95.72;100771.70;103278;1251;107701;-71
2023/12/18 20:39:36;;;;;;;27.60;22.90;;;;;;;6.69;95.53;100770.16;103239;1251;137699;-68
2023/12/18 20:42:03;;;;;;;25.30;20.40;;;;;;;6.63;95.71;100766.05;102576;1254;1003227;-69
2023/12/18 20:44:30;;;;;;;24.90;20.20;;;;;;;6.61;95.89;100767.09;102533;1254;1003754;-68
2023/12/18 20:46:57;;;;;;;23.10;18.90;;;;;;;6.59;96.11;100762.28;103156;1256;138422;-69
2023/12/18 20:49:25;;;;;;;24.00;19.80;;;;;;;6.56;96.23;100759.36;103321;1251;109168;-70
2023/12/18 20:51:54;;;;;;;26.00;19.50;;;;;;;6.55;96.48;100746.59;103154;1251;138626;-70
2023/12/18 20:54:22;;;;;;;22.60;18.50;;;;;;;6.53;96.66;100739.35;103236;1251;107000;-70
2023/12/18 20:56:49;;;;;;;25.10;19.90;;;;;;;6.58;96.93;100734.81;103193;1252;139389;-70
2023/12/18 20:59:16;;;;;;;23.70;19.90;;;;;;;6.57;96.87;100730.49;103295;1256;110141;-70
2023/12/18 21:01:43;;;;;;;26.00;22.20;;;;;;;6.58;96.79;100728.08;102463;1253;1002975;-69
2023/12/18 21:04:10;;;;;;;25.20;22.20;;;;;;;6.56;96.84;100735.01;103127;1254;137783;-70
2023/12/18 21:06:38;;;;;;;26.10;21.70;;;;;;;6.51;96.91;100734.19;102517;1251;1015205;-71
2023/12/18 21:09:05;;;;;;;25.20;19.40;;;;;;;6.51;97.21;100729.02;103234;1253;139287;-73
2023/12/18 21:11:34;;;;;;;21.10;17.90;;;;;;;6.49;97.18;100722.29;103248;1253;108972;-71
2023/12/18 21:14:00;;;;;;;21.30;18.20;;;;;;;6.48;97.38;100720.40;103255;1251;106864;-71
2023/12/18 21:16:27;;;;;;;21.60;18.60;;;;;;;6.48;97.51;100718.84;103643;1256;138705;-70
2023/12/18 21:18:54;;;;;;;20.90;17.70;;;;;;;6.50;97.58;100710.53;103363;1254;106663;-72
2023/12/18 21:21:21;;;;;;;22.50;18.40;;;;;;;6.47;97.59;100704.67;103159;1254;140473;-72
2023/12/18 21:23:48;;;;;;;23.40;18.60;;;;;;;6.49;97.84;100700.17;103308;1254;111531;-68
2023/12/18 21:26:15;;;;;;;23.50;18.40;;;;;;;6.48;97.79;100695.70;103346;1253;108103;-66
2023/12/18 21:28:42;;;;;;;22.20;17.70;;;;;;;6.46;97.91;100690.34;103367;1251;138411;-66
2023/12/18 21:31:09;;;;;;;21.50;17.40;;;;;;;6.48;98.20;100690.33;103313;1256;107561;-65
2023/12/18 21:33:37;;;;;;;23.50;18.50;;;;;;;6.48;98.05;100686.36;103377;1256;138206;-66
2023/12/18 21:36:05;;;;;;;24.60;19.20;;;;;;;6.48;97.96;100691.55;103447;1250;109181;-65
2023/12/18 21:38:31;;;;;;;22.80;19.80;;;;;;;6.48;98.10;100691.89;103712;1250;107215;-67
2023/12/18 21:41:00;;;;;;;23.60;18.90;;;;;;;6.46;98.12;100697.58;103260;1254;137664;-68
2023/12/18 21:43:27;;;;;;;23.30;18.70;;;;;;;6.43;98.15;100691.57;103397;1251;107157;-68
2023/12/18 21:45:56;;;;;;;22.90;18.80;;;;;;;6.39;98.23;100693.68;103227;1254;138319;-67
2023/12/18 21:48:22;;;;;;;24.70;18.70;;;;;;;6.38;98.28;100687.99;103353;1253;108721;-66